createdAt,value
2019-06-20T00:03:12.845Z,22.16
2019-06-20T00:08:18.605Z,22.16
2019-06-20T00:13:25.030Z,22.14
2019-06-20T00:18:30.570Z,22.17
2019-06-20T00:23:36.082Z,22.12
2019-06-20T00:28:41.585Z,22.11
2019-06-20T00:33:47.059Z,22.11
2019-06-20T00:38:52.590Z,22.10
2019-06-20T00:43:58.152Z,22.11
2019-06-20T00:49:03.719Z,22.09
2019-06-20T00:54:09.258Z,22.08
2019-06-20T00:59:14.838Z,22.06
2019-06-20T01:04:20.401Z,22.05
2019-06-20T01:09:25.960Z,22.04
2019-06-20T01:14:31.497Z,22.02
2019-06-20T01:19:36.959Z,22.06
2019-06-20T01:24:42.421Z,22.04
2019-06-20T01:29:47.849Z,21.99
2019-06-20T01:34:53.368Z,21.96
2019-06-20T01:39:58.794Z,21.99
2019-06-20T01:45:06.547Z,21.96
2019-06-20T01:50:12.097Z,21.94
2019-06-20T01:55:17.660Z,21.96
2019-06-20T02:00:45.652Z,21.93
2019-06-20T02:05:51.174Z,21.92
2019-06-20T02:10:56.879Z,21.93
2019-06-20T02:16:02.530Z,21.91
2019-06-20T02:21:08.207Z,21.88
2019-06-20T02:26:13.653Z,21.87
2019-06-20T02:31:19.115Z,21.81
2019-06-20T02:36:24.549Z,21.79
2019-06-20T02:41:30.040Z,21.81
2019-06-20T02:46:35.467Z,21.79
2019-06-20T02:51:40.908Z,21.79
2019-06-20T02:56:46.356Z,21.75
2019-06-20T03:01:51.815Z,21.72
2019-06-20T03:06:57.446Z,21.71
2019-06-20T03:12:02.911Z,21.73
2019-06-20T03:17:08.471Z,21.71
2019-06-20T03:22:14.038Z,21.64
2019-06-20T03:27:19.693Z,21.61
2019-06-20T03:32:25.161Z,21.63
2019-06-20T03:37:30.614Z,21.47
2019-06-20T03:42:36.197Z,21.64
2019-06-20T03:47:41.626Z,21.76
2019-06-20T03:52:48.736Z,21.72
2019-06-20T03:57:54.213Z,21.81
2019-06-20T04:02:59.777Z,21.90
2019-06-20T04:08:05.239Z,21.97
2019-06-20T04:13:10.696Z,22.00
2019-06-20T04:18:16.159Z,21.92
2019-06-20T04:23:21.584Z,21.89
2019-06-20T04:28:28.207Z,22.02
2019-06-20T04:33:33.762Z,22.18
2019-06-20T04:38:39.331Z,22.32
2019-06-20T04:43:44.788Z,22.27
2019-06-20T04:48:50.351Z,22.20
2019-06-20T04:53:55.807Z,22.24
2019-06-20T04:59:01.247Z,22.22
2019-06-20T05:04:06.834Z,22.13
2019-06-20T05:09:12.293Z,22.10
2019-06-20T05:14:17.803Z,22.09
2019-06-20T05:19:23.241Z,22.06
2019-06-20T05:24:28.683Z,22.09
2019-06-20T05:29:34.110Z,22.07
2019-06-20T05:34:39.542Z,22.01
2019-06-20T05:39:45.053Z,22.00
2019-06-20T05:44:50.480Z,21.94
2019-06-20T05:49:55.942Z,21.97
2019-06-20T05:55:01.532Z,21.96
2019-06-20T06:00:11.606Z,21.88
2019-06-20T06:05:17.260Z,21.86
2019-06-20T06:10:23.267Z,21.89
2019-06-20T06:15:29.000Z,21.87
2019-06-20T06:20:34.436Z,21.89
2019-06-20T06:25:42.101Z,21.91
2019-06-20T06:30:47.609Z,21.96
2019-06-20T06:35:53.040Z,21.96
2019-06-20T06:40:58.651Z,21.95
2019-06-20T06:46:04.167Z,21.98
2019-06-20T06:51:09.654Z,22.04
2019-06-20T06:56:15.092Z,22.05
2019-06-20T07:01:20.607Z,22.07
2019-06-20T07:06:26.040Z,22.07
2019-06-20T07:11:31.515Z,22.09
2019-06-20T07:16:37.118Z,22.07
2019-06-20T07:21:42.640Z,22.07
2019-06-20T07:26:48.096Z,22.17
2019-06-20T07:31:53.668Z,22.16
2019-06-20T07:36:59.225Z,22.12
2019-06-20T07:42:05.648Z,22.16
2019-06-20T07:47:17.487Z,22.11
2019-06-20T07:52:18.338Z,22.15
2019-06-20T07:57:23.836Z,22.17
2019-06-20T08:02:29.301Z,22.16
2019-06-20T08:07:34.768Z,22.12
2019-06-20T08:12:40.330Z,22.11
2019-06-20T08:17:45.866Z,22.13
2019-06-20T08:22:51.321Z,22.12
2019-06-20T08:27:57.841Z,22.16
2019-06-20T08:33:10.336Z,22.34
2019-06-20T08:38:11.978Z,22.32
2019-06-20T08:43:17.439Z,22.26
2019-06-20T08:48:22.915Z,22.23
2019-06-20T08:53:28.393Z,22.22
2019-06-20T08:58:33.853Z,22.17
2019-06-20T09:03:39.411Z,22.18
2019-06-20T09:08:44.851Z,22.15
2019-06-20T09:13:50.434Z,22.18
2019-06-20T09:18:56.705Z,22.17
2019-06-20T09:24:02.351Z,22.19
2019-06-20T09:29:08.966Z,22.22
2019-06-20T09:34:14.520Z,22.22
2019-06-20T09:39:20.080Z,22.27
2019-06-20T09:44:25.619Z,22.28
2019-06-20T09:49:32.011Z,22.35
2019-06-20T09:54:37.529Z,22.36
2019-06-20T09:59:56.113Z,22.50
2019-06-20T10:04:50.665Z,22.53
2019-06-20T10:09:56.495Z,22.59
2019-06-20T10:15:03.596Z,22.57
2019-06-20T10:20:09.210Z,22.60
2019-06-20T10:25:14.826Z,22.62
2019-06-20T10:30:22.363Z,22.62
2019-06-20T10:35:27.898Z,22.64
2019-06-20T10:40:33.566Z,22.67
2019-06-20T10:45:40.250Z,22.64
2019-06-20T10:50:46.224Z,22.65
2019-06-20T10:55:51.886Z,22.58
2019-06-20T11:00:57.556Z,22.60
2019-06-20T11:06:03.310Z,22.59
2019-06-20T11:11:08.789Z,22.62
2019-06-20T11:16:14.246Z,22.70
2019-06-20T11:21:19.713Z,22.72
2019-06-20T11:26:25.351Z,22.69
2019-06-20T11:31:30.917Z,22.68
2019-06-20T11:36:37.596Z,22.72
2019-06-20T11:41:43.714Z,22.65
2019-06-20T11:46:49.242Z,22.63
2019-06-20T11:51:54.795Z,22.57
2019-06-20T11:57:00.475Z,22.54
2019-06-20T12:02:06.343Z,22.52
2019-06-20T12:07:11.908Z,22.49
2019-06-20T12:12:17.495Z,22.45
2019-06-20T12:17:23.129Z,22.44
2019-06-20T12:22:28.902Z,22.41
2019-06-20T12:27:34.574Z,22.40
2019-06-20T12:32:40.661Z,22.40
2019-06-20T12:37:47.722Z,22.38
2019-06-20T12:42:53.604Z,22.36
2019-06-20T12:47:59.079Z,22.33
2019-06-20T12:53:04.608Z,22.36
2019-06-20T12:58:10.283Z,22.34
2019-06-20T13:03:15.763Z,22.33
2019-06-20T13:08:21.313Z,22.32
2019-06-20T13:13:26.814Z,22.34
2019-06-20T13:18:32.390Z,22.38
2019-06-20T13:23:39.739Z,22.37
2019-06-20T13:29:01.651Z,22.35
2019-06-20T13:33:52.505Z,22.34
2019-06-20T13:38:58.269Z,22.33
2019-06-20T13:44:04.947Z,22.33
2019-06-20T13:49:11.448Z,22.38
2019-06-20T13:54:17.307Z,22.44
2019-06-20T13:59:22.770Z,22.47
2019-06-20T14:04:28.234Z,22.45
2019-06-20T14:09:33.847Z,22.52
2019-06-20T14:14:41.951Z,22.63
2019-06-20T14:19:46.933Z,22.68
2019-06-20T14:24:53.685Z,22.66
2019-06-20T14:29:59.623Z,22.65
2019-06-20T14:35:06.113Z,22.71
2019-06-20T14:40:11.872Z,22.76
2019-06-20T14:45:18.175Z,22.77
2019-06-20T14:50:23.713Z,22.76
2019-06-20T14:55:29.539Z,22.79
2019-06-20T15:00:35.212Z,22.73
2019-06-20T15:05:40.808Z,22.75
2019-06-20T15:10:48.064Z,22.91
2019-06-20T15:15:53.475Z,22.94
2019-06-20T15:20:59.486Z,22.92
2019-06-20T15:26:05.458Z,22.91
2019-06-20T15:31:10.998Z,22.91
2019-06-20T15:36:16.470Z,22.93
2019-06-20T15:41:25.516Z,22.93
2019-06-20T15:46:31.927Z,22.92
2019-06-20T15:51:37.478Z,22.89
2019-06-20T15:56:42.904Z,22.88
2019-06-20T16:01:48.359Z,22.85
2019-06-20T16:06:53.880Z,22.83
2019-06-20T16:11:59.418Z,22.81
2019-06-20T16:17:04.999Z,22.79
2019-06-20T16:22:10.669Z,22.78
2019-06-20T16:27:16.309Z,22.80
2019-06-20T16:32:21.866Z,22.80
2019-06-20T16:37:27.535Z,23.01
2019-06-20T16:42:32.996Z,23.12
2019-06-20T16:47:38.674Z,23.10
2019-06-20T16:52:44.118Z,23.01
2019-06-20T16:57:49.548Z,22.97
2019-06-20T17:02:55.396Z,22.94
2019-06-20T17:08:00.893Z,22.97
2019-06-20T17:13:06.621Z,22.94
2019-06-20T17:18:12.181Z,22.92
2019-06-20T17:23:18.247Z,22.87
2019-06-20T17:28:23.991Z,22.85
2019-06-20T17:33:29.558Z,22.84
2019-06-20T17:38:35.199Z,22.81
2019-06-20T17:43:41.898Z,22.79
2019-06-20T17:48:47.552Z,22.81
2019-06-20T17:53:53.211Z,22.92
2019-06-20T17:58:58.779Z,23.02
2019-06-20T18:04:13.341Z,23.05
2019-06-20T18:09:11.465Z,23.11
2019-06-20T18:14:16.993Z,23.14
2019-06-20T18:19:23.392Z,23.16
2019-06-20T18:24:28.828Z,23.19
2019-06-20T18:29:34.276Z,23.20
2019-06-20T18:34:39.862Z,23.04
2019-06-20T18:39:45.290Z,23.00
2019-06-20T18:44:50.784Z,22.95
2019-06-20T18:49:56.253Z,22.93
2019-06-20T18:55:01.804Z,22.90
2019-06-20T19:00:09.270Z,22.85
2019-06-20T19:05:15.396Z,22.81
2019-06-20T19:10:24.227Z,22.77
2019-06-20T19:15:29.696Z,22.74
2019-06-20T19:20:35.169Z,22.73
2019-06-20T19:25:41.169Z,22.72
2019-06-20T19:30:49.479Z,22.74
2019-06-20T19:35:55.068Z,22.73
2019-06-20T19:41:00.518Z,22.72
2019-06-20T19:46:06.033Z,22.72
2019-06-20T19:51:11.588Z,22.71
2019-06-20T19:56:17.147Z,22.71
2019-06-20T20:01:22.658Z,22.71
2019-06-20T20:06:28.170Z,22.80
2019-06-20T20:11:33.734Z,22.85
2019-06-20T20:16:39.174Z,22.93
2019-06-20T20:21:44.758Z,22.95
2019-06-20T20:26:50.223Z,22.95
2019-06-20T20:31:55.778Z,22.99
2019-06-20T20:37:01.246Z,23.00
2019-06-20T20:42:07.004Z,23.00
2019-06-20T20:47:12.517Z,22.91
2019-06-20T20:52:17.945Z,22.80
2019-06-20T20:57:23.385Z,22.72
2019-06-20T21:02:28.897Z,22.72
2019-06-20T21:07:34.341Z,22.69
2019-06-20T21:12:39.834Z,22.67
2019-06-20T21:17:45.323Z,22.62
2019-06-20T21:22:50.878Z,22.60
2019-06-20T21:27:56.374Z,22.56
2019-06-20T21:33:01.918Z,22.52
2019-06-20T21:38:07.465Z,22.46
2019-06-20T21:48:31.943Z,22.50
2019-06-20T21:53:37.504Z,22.44
2019-06-20T21:58:42.989Z,22.48
2019-06-20T22:03:48.588Z,22.38
2019-06-20T22:08:54.085Z,22.41
2019-06-20T22:13:59.625Z,22.37
2019-06-20T22:19:05.322Z,22.37
2019-06-20T22:24:10.782Z,22.34
2019-06-20T22:29:16.334Z,22.35
2019-06-20T22:34:21.862Z,22.36
2019-06-20T22:39:27.467Z,22.35
2019-06-20T22:44:33.114Z,22.34
2019-06-20T22:49:38.685Z,22.33
2019-06-20T22:54:44.138Z,22.29
2019-06-20T22:59:49.593Z,22.25
2019-06-20T23:04:55.056Z,22.25
2019-06-20T23:10:09.623Z,22.23
2019-06-20T23:15:08.396Z,22.21
2019-06-20T23:20:14.803Z,22.22
2019-06-20T23:25:20.491Z,22.20
2019-06-20T23:30:26.041Z,22.19
2019-06-20T23:35:31.508Z,22.17
2019-06-20T23:40:36.965Z,22.16
2019-06-20T23:45:42.430Z,22.14
2019-06-20T23:50:47.887Z,22.16
2019-06-20T23:55:53.573Z,22.13
